sensor_id;sensor_type;location;lat;lon;timestamp;P1;durP1;ratioP1;P2;durP2;ratioP2
5821;SDS011;2937;48.562;8.022;2022-10-16T00:03:04;5.03;;;2.73;;
5821;SDS011;2937;48.562;8.022;2022-10-16T00:07:56;4.13;;;2.90;;
5821;SDS011;2937;48.562;8.022;2022-10-16T00:12:50;4.87;;;2.10;;
5821;SDS011;2937;48.562;8.022;2022-10-16T00:17:43;2.73;;;2.37;;
5821;SDS011;2937;48.562;8.022;2022-10-16T00:22:35;7.83;;;3.43;;
5821;SDS011;2937;48.562;8.022;2022-10-16T00:27:28;3.73;;;3.30;;
5821;SDS011;2937;48.562;8.022;2022-10-16T00:32:22;4.60;;;2.80;;
5821;SDS011;2937;48.562;8.022;2022-10-16T00:37:15;4.70;;;3.27;;
5821;SDS011;2937;48.562;8.022;2022-10-16T00:42:09;5.53;;;3.20;;
5821;SDS011;2937;48.562;8.022;2022-10-16T00:47:03;3.40;;;2.37;;
5821;SDS011;2937;48.562;8.022;2022-10-16T00:51:57;2.17;;;1.90;;
5821;SDS011;2937;48.562;8.022;2022-10-16T00:56:49;6.00;;;2.60;;
5821;SDS011;2937;48.562;8.022;2022-10-16T01:01:42;7.03;;;3.13;;
5821;SDS011;2937;48.562;8.022;2022-10-16T01:06:36;6.37;;;2.60;;
5821;SDS011;2937;48.562;8.022;2022-10-16T01:11:33;3.70;;;2.40;;
5821;SDS011;2937;48.562;8.022;2022-10-16T01:16:29;5.13;;;3.07;;
5821;SDS011;2937;48.562;8.022;2022-10-16T01:21:26;3.87;;;2.30;;
5821;SDS011;2937;48.562;8.022;2022-10-16T01:26:31;6.43;;;2.10;;
5821;SDS011;2937;48.562;8.022;2022-10-16T01:31:29;5.53;;;2.60;;
5821;SDS011;2937;48.562;8.022;2022-10-16T01:36:24;4.43;;;2.67;;
5821;SDS011;2937;48.562;8.022;2022-10-16T01:41:19;3.30;;;3.00;;
5821;SDS011;2937;48.562;8.022;2022-10-16T01:46:12;5.70;;;3.10;;
5821;SDS011;2937;48.562;8.022;2022-10-16T01:51:07;4.90;;;3.17;;
5821;SDS011;2937;48.562;8.022;2022-10-16T01:56:01;9.50;;;3.47;;
5821;SDS011;2937;48.562;8.022;2022-10-16T02:00:55;3.60;;;3.30;;
5821;SDS011;2937;48.562;8.022;2022-10-16T02:05:49;4.23;;;3.10;;
5821;SDS011;2937;48.562;8.022;2022-10-16T02:10:44;4.70;;;2.53;;
5821;SDS011;2937;48.562;8.022;2022-10-16T02:15:37;4.50;;;2.63;;
5821;SDS011;2937;48.562;8.022;2022-10-16T02:20:30;5.80;;;2.90;;
5821;SDS011;2937;48.562;8.022;2022-10-16T02:25:26;7.77;;;3.40;;
5821;SDS011;2937;48.562;8.022;2022-10-16T02:30:21;6.90;;;3.40;;
5821;SDS011;2937;48.562;8.022;2022-10-16T02:35:15;12.07;;;3.53;;
5821;SDS011;2937;48.562;8.022;2022-10-16T02:40:09;5.80;;;3.50;;
5821;SDS011;2937;48.562;8.022;2022-10-16T02:45:02;7.27;;;3.93;;
5821;SDS011;2937;48.562;8.022;2022-10-16T02:49:56;3.90;;;3.50;;
5821;SDS011;2937;48.562;8.022;2022-10-16T02:54:49;6.57;;;3.80;;
5821;SDS011;2937;48.562;8.022;2022-10-16T02:59:41;5.37;;;3.60;;
5821;SDS011;2937;48.562;8.022;2022-10-16T03:04:34;6.03;;;3.53;;
5821;SDS011;2937;48.562;8.022;2022-10-16T03:09:27;5.53;;;3.90;;
5821;SDS011;2937;48.562;8.022;2022-10-16T03:14:20;7.40;;;3.60;;
5821;SDS011;2937;48.562;8.022;2022-10-16T03:19:13;5.00;;;3.50;;
5821;SDS011;2937;48.562;8.022;2022-10-16T03:24:05;8.27;;;3.80;;
5821;SDS011;2937;48.562;8.022;2022-10-16T03:28:59;10.10;;;3.70;;
5821;SDS011;2937;48.562;8.022;2022-10-16T03:33:53;8.07;;;3.60;;
5821;SDS011;2937;48.562;8.022;2022-10-16T03:38:46;4.63;;;3.00;;
5821;SDS011;2937;48.562;8.022;2022-10-16T03:43:38;6.53;;;3.43;;
5821;SDS011;2937;48.562;8.022;2022-10-16T03:48:32;7.83;;;3.90;;
5821;SDS011;2937;48.562;8.022;2022-10-16T03:53:25;4.10;;;3.10;;
5821;SDS011;2937;48.562;8.022;2022-10-16T03:58:18;4.30;;;3.43;;
5821;SDS011;2937;48.562;8.022;2022-10-16T04:03:11;4.80;;;3.17;;
5821;SDS011;2937;48.562;8.022;2022-10-16T04:08:05;10.60;;;3.57;;
5821;SDS011;2937;48.562;8.022;2022-10-16T04:12:58;7.30;;;3.67;;
5821;SDS011;2937;48.562;8.022;2022-10-16T04:17:50;4.83;;;3.87;;
5821;SDS011;2937;48.562;8.022;2022-10-16T04:22:43;7.47;;;4.07;;
5821;SDS011;2937;48.562;8.022;2022-10-16T04:27:37;6.00;;;3.43;;
5821;SDS011;2937;48.562;8.022;2022-10-16T04:32:35;5.53;;;3.70;;
5821;SDS011;2937;48.562;8.022;2022-10-16T04:37:28;5.97;;;3.47;;
5821;SDS011;2937;48.562;8.022;2022-10-16T04:42:20;13.27;;;3.77;;
5821;SDS011;2937;48.562;8.022;2022-10-16T04:47:14;10.37;;;3.60;;
5821;SDS011;2937;48.562;8.022;2022-10-16T04:52:07;4.90;;;3.50;;
5821;SDS011;2937;48.562;8.022;2022-10-16T04:57:00;4.60;;;3.40;;
5821;SDS011;2937;48.562;8.022;2022-10-16T05:01:53;11.27;;;3.73;;
5821;SDS011;2937;48.562;8.022;2022-10-16T05:06:47;3.90;;;3.40;;
5821;SDS011;2937;48.562;8.022;2022-10-16T05:11:40;6.40;;;3.20;;
5821;SDS011;2937;48.562;8.022;2022-10-16T05:16:32;3.57;;;3.27;;
5821;SDS011;2937;48.562;8.022;2022-10-16T05:21:25;8.90;;;3.50;;
5821;SDS011;2937;48.562;8.022;2022-10-16T05:26:19;7.13;;;3.77;;
5821;SDS011;2937;48.562;8.022;2022-10-16T05:31:11;5.10;;;3.50;;
5821;SDS011;2937;48.562;8.022;2022-10-16T05:36:05;6.43;;;3.57;;
5821;SDS011;2937;48.562;8.022;2022-10-16T05:40:58;5.00;;;3.60;;
5821;SDS011;2937;48.562;8.022;2022-10-16T05:45:55;4.80;;;3.70;;
5821;SDS011;2937;48.562;8.022;2022-10-16T05:50:48;11.50;;;4.20;;
5821;SDS011;2937;48.562;8.022;2022-10-16T05:55:41;6.53;;;3.70;;
5821;SDS011;2937;48.562;8.022;2022-10-16T06:00:33;4.67;;;3.67;;
5821;SDS011;2937;48.562;8.022;2022-10-16T06:05:27;6.00;;;3.37;;
5821;SDS011;2937;48.562;8.022;2022-10-16T06:10:20;8.53;;;3.87;;
5821;SDS011;2937;48.562;8.022;2022-10-16T06:15:12;6.00;;;3.60;;
5821;SDS011;2937;48.562;8.022;2022-10-16T06:20:05;5.00;;;3.77;;
5821;SDS011;2937;48.562;8.022;2022-10-16T06:24:59;9.40;;;4.07;;
5821;SDS011;2937;48.562;8.022;2022-10-16T06:29:52;4.20;;;3.63;;
5821;SDS011;2937;48.562;8.022;2022-10-16T06:34:44;4.83;;;3.50;;
5821;SDS011;2937;48.562;8.022;2022-10-16T06:39:37;13.37;;;7.23;;
5821;SDS011;2937;48.562;8.022;2022-10-16T06:44:31;13.80;;;7.70;;
5821;SDS011;2937;48.562;8.022;2022-10-16T06:49:24;11.77;;;8.03;;
5821;SDS011;2937;48.562;8.022;2022-10-16T06:54:16;13.53;;;6.90;;
5821;SDS011;2937;48.562;8.022;2022-10-16T06:59:09;17.30;;;7.03;;
5821;SDS011;2937;48.562;8.022;2022-10-16T07:04:03;7.73;;;4.20;;
5821;SDS011;2937;48.562;8.022;2022-10-16T07:08:56;4.43;;;3.90;;
5821;SDS011;2937;48.562;8.022;2022-10-16T07:13:48;6.20;;;3.40;;
5821;SDS011;2937;48.562;8.022;2022-10-16T07:18:46;5.50;;;3.50;;
5821;SDS011;2937;48.562;8.022;2022-10-16T07:23:41;14.20;;;3.40;;
5821;SDS011;2937;48.562;8.022;2022-10-16T07:28:34;5.23;;;3.07;;
5821;SDS011;2937;48.562;8.022;2022-10-16T07:33:27;7.23;;;3.40;;
5821;SDS011;2937;48.562;8.022;2022-10-16T07:38:20;7.30;;;3.27;;
5821;SDS011;2937;48.562;8.022;2022-10-16T07:43:14;6.30;;;3.03;;
5821;SDS011;2937;48.562;8.022;2022-10-16T07:48:07;11.43;;;3.43;;
5821;SDS011;2937;48.562;8.022;2022-10-16T07:52:59;9.90;;;3.50;;
5821;SDS011;2937;48.562;8.022;2022-10-16T07:57:52;5.13;;;3.07;;
5821;SDS011;2937;48.562;8.022;2022-10-16T08:02:46;6.63;;;3.70;;
5821;SDS011;2937;48.562;8.022;2022-10-16T08:07:38;4.20;;;2.80;;
5821;SDS011;2937;48.562;8.022;2022-10-16T08:12:31;7.80;;;3.97;;
5821;SDS011;2937;48.562;8.022;2022-10-16T08:17:24;4.60;;;3.90;;
5821;SDS011;2937;48.562;8.022;2022-10-16T08:22:18;3.97;;;3.07;;
5821;SDS011;2937;48.562;8.022;2022-10-16T08:27:10;7.80;;;2.90;;
5821;SDS011;2937;48.562;8.022;2022-10-16T08:32:03;9.53;;;3.27;;
5821;SDS011;2937;48.562;8.022;2022-10-16T08:36:56;8.13;;;3.40;;
5821;SDS011;2937;48.562;8.022;2022-10-16T08:41:58;4.53;;;2.70;;
5821;SDS011;2937;48.562;8.022;2022-10-16T08:46:54;7.33;;;3.07;;
5821;SDS011;2937;48.562;8.022;2022-10-16T08:51:49;4.03;;;2.50;;
5821;SDS011;2937;48.562;8.022;2022-10-16T08:56:42;5.40;;;2.70;;
5821;SDS011;2937;48.562;8.022;2022-10-16T09:01:37;6.97;;;2.70;;
5821;SDS011;2937;48.562;8.022;2022-10-16T09:11:44;3.00;;;2.37;;
5821;SDS011;2937;48.562;8.022;2022-10-16T09:16:41;4.67;;;2.20;;
5821;SDS011;2937;48.562;8.022;2022-10-16T09:21:35;5.07;;;2.50;;
5821;SDS011;2937;48.562;8.022;2022-10-16T09:26:28;7.20;;;2.60;;
5821;SDS011;2937;48.562;8.022;2022-10-16T09:31:21;3.40;;;2.70;;
5821;SDS011;2937;48.562;8.022;2022-10-16T09:36:16;4.20;;;2.67;;
5821;SDS011;2937;48.562;8.022;2022-10-16T09:41:13;6.30;;;3.20;;
5821;SDS011;2937;48.562;8.022;2022-10-16T09:46:07;6.70;;;3.00;;
5821;SDS011;2937;48.562;8.022;2022-10-16T09:51:01;5.70;;;3.10;;
5821;SDS011;2937;48.562;8.022;2022-10-16T09:55:56;7.40;;;3.27;;
5821;SDS011;2937;48.562;8.022;2022-10-16T10:00:49;5.93;;;2.70;;
5821;SDS011;2937;48.562;8.022;2022-10-16T10:05:41;4.87;;;2.90;;
5821;SDS011;2937;48.562;8.022;2022-10-16T10:10:40;8.00;;;2.70;;
5821;SDS011;2937;48.562;8.022;2022-10-16T10:15:35;4.10;;;2.87;;
5821;SDS011;2937;48.562;8.022;2022-10-16T10:20:29;3.20;;;2.57;;
5821;SDS011;2937;48.562;8.022;2022-10-16T10:25:26;5.93;;;2.77;;
5821;SDS011;2937;48.562;8.022;2022-10-16T10:30:25;4.43;;;2.90;;
5821;SDS011;2937;48.562;8.022;2022-10-16T10:35:22;7.53;;;3.07;;
5821;SDS011;2937;48.562;8.022;2022-10-16T10:40:17;8.43;;;2.70;;
5821;SDS011;2937;48.562;8.022;2022-10-16T10:45:16;5.40;;;2.97;;
5821;SDS011;2937;48.562;8.022;2022-10-16T10:50:12;3.50;;;2.50;;
5821;SDS011;2937;48.562;8.022;2022-10-16T10:55:12;6.83;;;2.90;;
5821;SDS011;2937;48.562;8.022;2022-10-16T11:00:12;7.33;;;2.90;;
5821;SDS011;2937;48.562;8.022;2022-10-16T11:10:30;4.73;;;2.90;;
5821;SDS011;2937;48.562;8.022;2022-10-16T11:15:27;5.17;;;2.70;;
5821;SDS011;2937;48.562;8.022;2022-10-16T11:20:22;3.80;;;2.53;;
5821;SDS011;2937;48.562;8.022;2022-10-16T11:25:16;9.53;;;2.80;;
5821;SDS011;2937;48.562;8.022;2022-10-16T11:30:14;3.43;;;2.60;;
5821;SDS011;2937;48.562;8.022;2022-10-16T11:35:10;4.70;;;2.47;;
5821;SDS011;2937;48.562;8.022;2022-10-16T11:40:11;4.50;;;2.60;;
5821;SDS011;2937;48.562;8.022;2022-10-16T11:45:09;12.73;;;2.50;;
5821;SDS011;2937;48.562;8.022;2022-10-16T11:50:22;5.60;;;2.43;;
5821;SDS011;2937;48.562;8.022;2022-10-16T11:55:15;2.90;;;2.50;;
5821;SDS011;2937;48.562;8.022;2022-10-16T12:00:09;8.40;;;2.57;;
5821;SDS011;2937;48.562;8.022;2022-10-16T12:05:11;4.33;;;2.43;;
5821;SDS011;2937;48.562;8.022;2022-10-16T12:10:17;3.33;;;2.30;;
5821;SDS011;2937;48.562;8.022;2022-10-16T12:15:19;4.53;;;2.40;;
5821;SDS011;2937;48.562;8.022;2022-10-16T12:20:33;3.23;;;2.47;;
5821;SDS011;2937;48.562;8.022;2022-10-16T12:25:28;6.40;;;2.30;;
5821;SDS011;2937;48.562;8.022;2022-10-16T12:30:22;4.63;;;2.40;;
5821;SDS011;2937;48.562;8.022;2022-10-16T12:35:17;4.90;;;2.63;;
5821;SDS011;2937;48.562;8.022;2022-10-16T12:40:12;8.30;;;2.60;;
5821;SDS011;2937;48.562;8.022;2022-10-16T12:45:21;5.33;;;2.90;;
5821;SDS011;2937;48.562;8.022;2022-10-16T12:50:27;3.40;;;3.00;;
5821;SDS011;2937;48.562;8.022;2022-10-16T12:55:21;3.90;;;3.23;;
5821;SDS011;2937;48.562;8.022;2022-10-16T13:00:18;4.60;;;3.10;;
5821;SDS011;2937;48.562;8.022;2022-10-16T13:05:16;4.17;;;3.03;;
5821;SDS011;2937;48.562;8.022;2022-10-16T13:10:14;4.07;;;3.00;;
5821;SDS011;2937;48.562;8.022;2022-10-16T13:15:21;7.90;;;2.80;;
5821;SDS011;2937;48.562;8.022;2022-10-16T13:20:17;4.83;;;2.90;;
5821;SDS011;2937;48.562;8.022;2022-10-16T13:25:15;5.90;;;3.40;;
5821;SDS011;2937;48.562;8.022;2022-10-16T13:30:11;3.33;;;3.03;;
5821;SDS011;2937;48.562;8.022;2022-10-16T13:35:17;5.83;;;3.30;;
5821;SDS011;2937;48.562;8.022;2022-10-16T13:40:12;3.93;;;2.63;;
5821;SDS011;2937;48.562;8.022;2022-10-16T13:45:17;9.87;;;3.20;;
5821;SDS011;2937;48.562;8.022;2022-10-16T13:50:11;5.43;;;3.00;;
5821;SDS011;2937;48.562;8.022;2022-10-16T13:55:09;4.70;;;3.10;;
5821;SDS011;2937;48.562;8.022;2022-10-16T14:00:02;7.97;;;3.03;;
5821;SDS011;2937;48.562;8.022;2022-10-16T14:04:55;3.40;;;3.10;;
5821;SDS011;2937;48.562;8.022;2022-10-16T14:09:48;6.83;;;3.20;;
5821;SDS011;2937;48.562;8.022;2022-10-16T14:14:43;5.03;;;2.73;;
5821;SDS011;2937;48.562;8.022;2022-10-16T14:19:36;5.23;;;3.00;;
5821;SDS011;2937;48.562;8.022;2022-10-16T14:24:31;2.97;;;2.70;;
5821;SDS011;2937;48.562;8.022;2022-10-16T14:29:25;3.90;;;2.50;;
5821;SDS011;2937;48.562;8.022;2022-10-16T14:34:30;4.53;;;2.77;;
5821;SDS011;2937;48.562;8.022;2022-10-16T14:39:24;3.17;;;2.77;;
5821;SDS011;2937;48.562;8.022;2022-10-16T14:44:18;3.30;;;2.80;;
5821;SDS011;2937;48.562;8.022;2022-10-16T14:49:14;3.80;;;2.87;;
5821;SDS011;2937;48.562;8.022;2022-10-16T14:54:09;3.73;;;3.00;;
5821;SDS011;2937;48.562;8.022;2022-10-16T14:59:12;4.53;;;2.90;;
5821;SDS011;2937;48.562;8.022;2022-10-16T15:04:07;3.20;;;2.90;;
5821;SDS011;2937;48.562;8.022;2022-10-16T15:09:00;3.90;;;2.83;;
5821;SDS011;2937;48.562;8.022;2022-10-16T15:13:54;8.40;;;3.50;;
5821;SDS011;2937;48.562;8.022;2022-10-16T15:18:46;6.93;;;3.30;;
5821;SDS011;2937;48.562;8.022;2022-10-16T15:23:39;7.60;;;3.33;;
5821;SDS011;2937;48.562;8.022;2022-10-16T15:28:31;7.33;;;4.37;;
5821;SDS011;2937;48.562;8.022;2022-10-16T15:33:26;6.10;;;4.07;;
5821;SDS011;2937;48.562;8.022;2022-10-16T15:38:29;7.93;;;4.20;;
5821;SDS011;2937;48.562;8.022;2022-10-16T15:43:22;6.00;;;3.80;;
5821;SDS011;2937;48.562;8.022;2022-10-16T15:48:14;5.80;;;3.23;;
5821;SDS011;2937;48.562;8.022;2022-10-16T15:53:08;8.47;;;3.40;;
5821;SDS011;2937;48.562;8.022;2022-10-16T15:58:01;6.47;;;3.90;;
5821;SDS011;2937;48.562;8.022;2022-10-16T16:02:54;5.83;;;3.90;;
5821;SDS011;2937;48.562;8.022;2022-10-16T16:07:46;8.53;;;4.07;;
5821;SDS011;2937;48.562;8.022;2022-10-16T16:12:40;5.60;;;3.67;;
5821;SDS011;2937;48.562;8.022;2022-10-16T16:17:33;5.87;;;4.20;;
5821;SDS011;2937;48.562;8.022;2022-10-16T16:22:26;6.90;;;4.57;;
5821;SDS011;2937;48.562;8.022;2022-10-16T16:27:20;12.67;;;7.40;;
5821;SDS011;2937;48.562;8.022;2022-10-16T16:32:14;6.10;;;4.60;;
5821;SDS011;2937;48.562;8.022;2022-10-16T16:37:06;8.77;;;5.00;;
5821;SDS011;2937;48.562;8.022;2022-10-16T16:41:59;8.37;;;5.23;;
5821;SDS011;2937;48.562;8.022;2022-10-16T16:46:52;9.87;;;5.80;;
5821;SDS011;2937;48.562;8.022;2022-10-16T16:51:47;8.87;;;6.00;;
5821;SDS011;2937;48.562;8.022;2022-10-16T16:56:39;10.30;;;5.67;;
5821;SDS011;2937;48.562;8.022;2022-10-16T17:01:33;7.80;;;5.27;;
5821;SDS011;2937;48.562;8.022;2022-10-16T17:06:27;12.43;;;5.37;;
5821;SDS011;2937;48.562;8.022;2022-10-16T17:11:23;8.90;;;4.97;;
5821;SDS011;2937;48.562;8.022;2022-10-16T17:16:16;8.50;;;5.23;;
5821;SDS011;2937;48.562;8.022;2022-10-16T17:21:09;7.47;;;5.50;;
5821;SDS011;2937;48.562;8.022;2022-10-16T17:26:02;15.63;;;6.03;;
5821;SDS011;2937;48.562;8.022;2022-10-16T17:30:56;13.33;;;6.50;;
5821;SDS011;2937;48.562;8.022;2022-10-16T17:35:58;17.33;;;6.23;;
5821;SDS011;2937;48.562;8.022;2022-10-16T17:40:51;11.20;;;5.47;;
5821;SDS011;2937;48.562;8.022;2022-10-16T17:45:44;6.50;;;4.87;;
5821;SDS011;2937;48.562;8.022;2022-10-16T17:50:39;7.50;;;5.60;;
5821;SDS011;2937;48.562;8.022;2022-10-16T17:55:36;9.73;;;5.47;;
5821;SDS011;2937;48.562;8.022;2022-10-16T18:00:28;9.20;;;4.70;;
5821;SDS011;2937;48.562;8.022;2022-10-16T18:05:21;5.43;;;4.37;;
5821;SDS011;2937;48.562;8.022;2022-10-16T18:10:15;5.03;;;4.20;;
5821;SDS011;2937;48.562;8.022;2022-10-16T18:15:11;5.83;;;4.00;;
5821;SDS011;2937;48.562;8.022;2022-10-16T18:20:04;8.90;;;3.77;;
5821;SDS011;2937;48.562;8.022;2022-10-16T18:24:57;8.80;;;3.87;;
5821;SDS011;2937;48.562;8.022;2022-10-16T18:29:51;5.83;;;3.80;;
5821;SDS011;2937;48.562;8.022;2022-10-16T18:34:47;5.20;;;3.67;;
5821;SDS011;2937;48.562;8.022;2022-10-16T18:39:40;6.70;;;3.60;;
5821;SDS011;2937;48.562;8.022;2022-10-16T18:44:32;5.20;;;3.63;;
5821;SDS011;2937;48.562;8.022;2022-10-16T18:49:26;7.27;;;4.00;;
5821;SDS011;2937;48.562;8.022;2022-10-16T18:54:19;8.30;;;3.77;;
5821;SDS011;2937;48.562;8.022;2022-10-16T18:59:12;5.30;;;3.67;;
5821;SDS011;2937;48.562;8.022;2022-10-16T19:04:05;11.77;;;3.83;;
5821;SDS011;2937;48.562;8.022;2022-10-16T19:09:00;6.10;;;3.87;;
5821;SDS011;2937;48.562;8.022;2022-10-16T19:13:52;7.03;;;3.40;;
5821;SDS011;2937;48.562;8.022;2022-10-16T19:18:45;9.40;;;3.47;;
5821;SDS011;2937;48.562;8.022;2022-10-16T19:23:38;4.70;;;4.00;;
5821;SDS011;2937;48.562;8.022;2022-10-16T19:28:32;13.83;;;9.40;;
5821;SDS011;2937;48.562;8.022;2022-10-16T19:33:25;16.17;;;10.43;;
5821;SDS011;2937;48.562;8.022;2022-10-16T19:38:17;15.13;;;10.07;;
5821;SDS011;2937;48.562;8.022;2022-10-16T19:43:10;13.60;;;9.40;;
5821;SDS011;2937;48.562;8.022;2022-10-16T19:48:04;15.67;;;9.80;;
5821;SDS011;2937;48.562;8.022;2022-10-16T19:52:57;17.50;;;8.43;;
5821;SDS011;2937;48.562;8.022;2022-10-16T19:57:49;12.93;;;8.17;;
5821;SDS011;2937;48.562;8.022;2022-10-16T20:02:42;10.93;;;8.90;;
5821;SDS011;2937;48.562;8.022;2022-10-16T20:07:35;15.13;;;9.70;;
5821;SDS011;2937;48.562;8.022;2022-10-16T20:12:28;17.03;;;10.33;;
5821;SDS011;2937;48.562;8.022;2022-10-16T20:17:21;14.20;;;10.43;;
5821;SDS011;2937;48.562;8.022;2022-10-16T20:22:13;18.17;;;10.70;;
5821;SDS011;2937;48.562;8.022;2022-10-16T20:27:07;14.50;;;10.03;;
5821;SDS011;2937;48.562;8.022;2022-10-16T20:32:00;10.80;;;7.73;;
5821;SDS011;2937;48.562;8.022;2022-10-16T20:36:52;10.73;;;7.40;;
5821;SDS011;2937;48.562;8.022;2022-10-16T20:41:45;6.37;;;5.77;;
5821;SDS011;2937;48.562;8.022;2022-10-16T20:46:39;7.73;;;4.80;;
5821;SDS011;2937;48.562;8.022;2022-10-16T20:51:31;9.23;;;4.27;;
5821;SDS011;2937;48.562;8.022;2022-10-16T20:56:24;6.30;;;3.90;;
5821;SDS011;2937;48.562;8.022;2022-10-16T21:01:19;8.20;;;3.80;;
5821;SDS011;2937;48.562;8.022;2022-10-16T21:06:13;7.80;;;3.90;;
5821;SDS011;2937;48.562;8.022;2022-10-16T21:11:09;7.83;;;3.23;;
5821;SDS011;2937;48.562;8.022;2022-10-16T21:16:02;4.50;;;3.33;;
5821;SDS011;2937;48.562;8.022;2022-10-16T21:20:55;5.43;;;3.60;;
5821;SDS011;2937;48.562;8.022;2022-10-16T21:25:49;8.83;;;3.60;;
5821;SDS011;2937;48.562;8.022;2022-10-16T21:30:42;8.87;;;3.63;;
5821;SDS011;2937;48.562;8.022;2022-10-16T21:35:34;10.77;;;3.50;;
5821;SDS011;2937;48.562;8.022;2022-10-16T21:40:27;4.27;;;3.10;;
5821;SDS011;2937;48.562;8.022;2022-10-16T21:45:21;7.13;;;3.40;;
5821;SDS011;2937;48.562;8.022;2022-10-16T21:50:14;9.10;;;3.57;;
5821;SDS011;2937;48.562;8.022;2022-10-16T21:55:07;7.30;;;3.33;;
5821;SDS011;2937;48.562;8.022;2022-10-16T21:59:59;4.60;;;3.17;;
5821;SDS011;2937;48.562;8.022;2022-10-16T22:04:58;8.00;;;3.33;;
5821;SDS011;2937;48.562;8.022;2022-10-16T22:09:51;11.60;;;4.27;;
5821;SDS011;2937;48.562;8.022;2022-10-16T22:14:43;8.43;;;3.57;;
5821;SDS011;2937;48.562;8.022;2022-10-16T22:19:36;5.83;;;3.40;;
5821;SDS011;2937;48.562;8.022;2022-10-16T22:24:30;10.80;;;4.07;;
5821;SDS011;2937;48.562;8.022;2022-10-16T22:29:28;8.40;;;4.10;;
5821;SDS011;2937;48.562;8.022;2022-10-16T22:34:20;9.10;;;4.27;;
5821;SDS011;2937;48.562;8.022;2022-10-16T22:39:13;11.47;;;4.10;;
5821;SDS011;2937;48.562;8.022;2022-10-16T22:44:09;7.13;;;4.17;;
5821;SDS011;2937;48.562;8.022;2022-10-16T22:49:01;7.53;;;4.70;;
5821;SDS011;2937;48.562;8.022;2022-10-16T22:53:55;6.73;;;4.37;;
5821;SDS011;2937;48.562;8.022;2022-10-16T22:58:48;11.40;;;5.07;;
5821;SDS011;2937;48.562;8.022;2022-10-16T23:03:42;13.57;;;5.00;;
5821;SDS011;2937;48.562;8.022;2022-10-16T23:08:34;9.50;;;5.50;;
5821;SDS011;2937;48.562;8.022;2022-10-16T23:13:27;26.63;;;7.07;;
5821;SDS011;2937;48.562;8.022;2022-10-16T23:18:19;12.70;;;5.77;;
5821;SDS011;2937;48.562;8.022;2022-10-16T23:23:13;9.63;;;4.97;;
5821;SDS011;2937;48.562;8.022;2022-10-16T23:28:06;10.80;;;4.97;;
5821;SDS011;2937;48.562;8.022;2022-10-16T23:32:58;4.83;;;4.37;;
5821;SDS011;2937;48.562;8.022;2022-10-16T23:37:51;8.10;;;5.10;;
5821;SDS011;2937;48.562;8.022;2022-10-16T23:42:45;9.43;;;5.03;;
5821;SDS011;2937;48.562;8.022;2022-10-16T23:47:37;6.23;;;5.47;;
5821;SDS011;2937;48.562;8.022;2022-10-16T23:52:31;6.60;;;5.23;;
5821;SDS011;2937;48.562;8.022;2022-10-16T23:57:24;14.00;;;5.77;;
